Huvudsida
METAR-TAF:

METAR-TAF

Flygplatser :

Dusjanbe, Tadzjikistan

Dusjanbes internationella flygplats

latitud: 38-33N, longitud: 068-47E, höjd: 803 m

Aktuellt väderrapport

Denna rapport gjordes för 37 minuter sedan, klockan 00:30 UTC
Vind 8 kt från nordost
Temperatur 5°C
Fuktighet 45%
Tryck 1022 hPa
Sikt 10 km eller mer

METAR: UTDD 200030Z 04004MPS 9999 NSC 05/M06 Q1022 R09/D NOSIG RMK QFE698/0930

Tid: 06:07 (01:07 UTC)

Väderprognos

Denna rapport gjordes för 1 timme och 7 minuter sedan, klockan 00:00 UTC
Prognos gäller från 20 kl. 01 UTC till 20 kl. 13 UTC
Vind 4 kt varierande vindriktning
Sikt: 5000 m
Få moln på en höjd av 6600 ft
Spridda moln på en höjd av 15000 ft
rök
Temporärt
från 20 kl. 01 UTC till 20 kl. 07 UTC
Sikt: 1000 m
fuktdis, rök

TAF: UTDD 200000Z 2001/2013 VRB02MPS 5000 FU FEW066 SCT150 TEMPO 2001/2007 1000 BR FU

Aktuella väderrapporter och prognoser från 4000 flygplatser (METAR- och TAF-rapporter).

De tillgängliga stationerna syns som gula och röda prickar på kartan.

För musen över prickarna för att se namnen på stationerna.

Klicka sedan för att få väderrapporter och prognoser.

För att ändra kartan: Klicka på de gröna knapparna med ett svart kors på för att zooma in; den gröna knappen med ett streck på för att zooma ut; eller på de gröna pilarna för angränsande kartor.


METAR-TAF: